KGCD

Grant Co Regional / Ogilvie Field Airport

John Day, Oregon, USA
METAR KGCD 150055Z AUTO 31007G14KT 10SM CLR 33/M01 A2993 RMK AO2 T03341015
Observed Flight Rules
Aug-15 @ 00:55 UTC (10 minutes ago) Visual Flight Rules
Wind Visibility Clouds
310° at 7 knots
 Gusting to 14 knots
10 miles
  • Clear skies
Temperatures Readings
Current 33°C / 91°F
Dewpoint -2°C / 28°F
Humidity 10%
Altimeter 29.93" Hg
Pressure 1014 hPa
Elevation 1127
METAR KGCD 150055Z AUTO 31007G14KT 10SM CLR 33/M01 A2993 RMK AO2 T03341015
Observed Flight Rules
Aug-15 @ 00:55 UTC
(10 minutes ago)
VFR
Wind Visibility
310° at 7 knots
 Gusting to 14 knots
10 miles
Clouds
  • Clear skies
Temperature Dewpoint
33°C / 91°F -2°C / 28°F
Humidity Altimeter Pressure
10% 29.93" Hg 1014 hPa